sensor_id;sensor_type;location;lat;lon;timestamp;temperature;humidity
57833;DHT22;43667;53.036;6.740;2023-02-22T00:01:18;8.70;99.90
57833;DHT22;43667;53.036;6.740;2023-02-22T00:03:52;8.70;99.90
57833;DHT22;43667;53.036;6.740;2023-02-22T00:06:20;8.70;99.90
57833;DHT22;43667;53.036;6.740;2023-02-22T00:08:47;8.70;99.90
57833;DHT22;43667;53.036;6.740;2023-02-22T00:11:14;8.70;99.90
57833;DHT22;43667;53.036;6.740;2023-02-22T00:13:40;8.70;99.90
57833;DHT22;43667;53.036;6.740;2023-02-22T00:16:14;8.70;99.90
57833;DHT22;43667;53.036;6.740;2023-02-22T00:18:40;8.70;99.90
57833;DHT22;43667;53.036;6.740;2023-02-22T00:21:06;8.70;99.90
57833;DHT22;43667;53.036;6.740;2023-02-22T00:23:36;8.60;99.90
57833;DHT22;43667;53.036;6.740;2023-02-22T00:26:05;8.70;99.90
57833;DHT22;43667;53.036;6.740;2023-02-22T00:28:37;8.70;99.90
57833;DHT22;43667;53.036;6.740;2023-02-22T00:31:04;8.70;99.90
57833;DHT22;43667;53.036;6.740;2023-02-22T00:33:31;8.70;99.90
57833;DHT22;43667;53.036;6.740;2023-02-22T00:35:57;8.70;99.90
57833;DHT22;43667;53.036;6.740;2023-02-22T00:38:23;8.70;99.90
57833;DHT22;43667;53.036;6.740;2023-02-22T00:40:48;8.60;99.90
57833;DHT22;43667;53.036;6.740;2023-02-22T00:43:14;8.60;99.90
57833;DHT22;43667;53.036;6.740;2023-02-22T00:45:40;8.60;99.90
57833;DHT22;43667;53.036;6.740;2023-02-22T00:48:06;8.60;99.90
57833;DHT22;43667;53.036;6.740;2023-02-22T00:50:33;8.60;99.90
57833;DHT22;43667;53.036;6.740;2023-02-22T00:53:00;8.60;99.90
57833;DHT22;43667;53.036;6.740;2023-02-22T00:55:30;8.60;99.90
57833;DHT22;43667;53.036;6.740;2023-02-22T00:57:57;8.60;99.90
57833;DHT22;43667;53.036;6.740;2023-02-22T01:00:35;8.60;99.90
57833;DHT22;43667;53.036;6.740;2023-02-22T01:03:02;8.60;99.90
57833;DHT22;43667;53.036;6.740;2023-02-22T01:05:30;8.60;99.90
57833;DHT22;43667;53.036;6.740;2023-02-22T01:07:57;8.60;99.90
57833;DHT22;43667;53.036;6.740;2023-02-22T01:10:25;8.60;99.90
57833;DHT22;43667;53.036;6.740;2023-02-22T01:12:51;8.60;99.90
57833;DHT22;43667;53.036;6.740;2023-02-22T01:15:23;8.60;99.90
57833;DHT22;43667;53.036;6.740;2023-02-22T01:17:50;8.60;99.90
57833;DHT22;43667;53.036;6.740;2023-02-22T01:20:17;8.60;99.90
57833;DHT22;43667;53.036;6.740;2023-02-22T01:22:45;8.60;99.90
57833;DHT22;43667;53.036;6.740;2023-02-22T01:25:17;8.60;99.90
57833;DHT22;43667;53.036;6.740;2023-02-22T01:27:43;8.60;99.90
57833;DHT22;43667;53.036;6.740;2023-02-22T01:30:11;8.60;99.90
57833;DHT22;43667;53.036;6.740;2023-02-22T01:32:39;8.60;99.90
57833;DHT22;43667;53.036;6.740;2023-02-22T01:35:10;8.60;99.90
57833;DHT22;43667;53.036;6.740;2023-02-22T01:37:35;8.50;99.90
57833;DHT22;43667;53.036;6.740;2023-02-22T01:40:03;8.60;99.90
57833;DHT22;43667;53.036;6.740;2023-02-22T01:42:29;8.50;99.90
57833;DHT22;43667;53.036;6.740;2023-02-22T01:48:07;8.50;99.90
57833;DHT22;43667;53.036;6.740;2023-02-22T01:50:37;8.50;99.90
57833;DHT22;43667;53.036;6.740;2023-02-22T01:53:03;8.50;99.90
57833;DHT22;43667;53.036;6.740;2023-02-22T01:55:30;8.50;99.90
57833;DHT22;43667;53.036;6.740;2023-02-22T01:57:58;8.50;99.90
57833;DHT22;43667;53.036;6.740;2023-02-22T02:00:24;8.50;99.90
57833;DHT22;43667;53.036;6.740;2023-02-22T02:02:58;8.50;99.90
57833;DHT22;43667;53.036;6.740;2023-02-22T02:05:26;8.50;99.90
57833;DHT22;43667;53.036;6.740;2023-02-22T02:07:52;8.50;99.90
57833;DHT22;43667;53.036;6.740;2023-02-22T02:10:18;8.50;99.90
57833;DHT22;43667;53.036;6.740;2023-02-22T02:12:46;8.50;99.90
57833;DHT22;43667;53.036;6.740;2023-02-22T02:15:29;8.50;99.90
57833;DHT22;43667;53.036;6.740;2023-02-22T02:18:01;8.50;99.90
57833;DHT22;43667;53.036;6.740;2023-02-22T02:29:03;8.40;99.90
57833;DHT22;43667;53.036;6.740;2023-02-22T02:34:32;8.40;99.90
57833;DHT22;43667;53.036;6.740;2023-02-22T02:43:06;8.50;99.90
57833;DHT22;43667;53.036;6.740;2023-02-22T02:45:38;8.50;99.90
57833;DHT22;43667;53.036;6.740;2023-02-22T02:48:06;8.50;99.90
57833;DHT22;43667;53.036;6.740;2023-02-22T02:50:43;8.50;99.90
57833;DHT22;43667;53.036;6.740;2023-02-22T02:53:13;8.50;99.90
57833;DHT22;43667;53.036;6.740;2023-02-22T02:55:41;8.40;99.90
57833;DHT22;43667;53.036;6.740;2023-02-22T02:58:07;8.40;99.90
57833;DHT22;43667;53.036;6.740;2023-02-22T03:00:38;8.40;99.90
57833;DHT22;43667;53.036;6.740;2023-02-22T03:06:04;8.40;99.90
57833;DHT22;43667;53.036;6.740;2023-02-22T03:08:47;8.40;99.90
57833;DHT22;43667;53.036;6.740;2023-02-22T03:11:26;8.40;99.90
57833;DHT22;43667;53.036;6.740;2023-02-22T03:14:04;8.40;99.90
57833;DHT22;43667;53.036;6.740;2023-02-22T03:16:44;8.30;99.90
57833;DHT22;43667;53.036;6.740;2023-02-22T03:19:16;8.40;99.90
57833;DHT22;43667;53.036;6.740;2023-02-22T03:27:22;8.40;99.90
57833;DHT22;43667;53.036;6.740;2023-02-22T03:29:53;8.40;99.90
57833;DHT22;43667;53.036;6.740;2023-02-22T03:32:22;8.30;99.90
57833;DHT22;43667;53.036;6.740;2023-02-22T03:34:55;8.30;99.90
57833;DHT22;43667;53.036;6.740;2023-02-22T03:37:31;8.30;99.90
57833;DHT22;43667;53.036;6.740;2023-02-22T03:39:59;8.30;99.90
57833;DHT22;43667;53.036;6.740;2023-02-22T03:42:31;8.30;99.90
57833;DHT22;43667;53.036;6.740;2023-02-22T03:44:59;8.30;99.90
57833;DHT22;43667;53.036;6.740;2023-02-22T03:47:40;8.30;99.90
57833;DHT22;43667;53.036;6.740;2023-02-22T03:52:40;8.30;99.90
57833;DHT22;43667;53.036;6.740;2023-02-22T03:55:07;8.20;99.90
57833;DHT22;43667;53.036;6.740;2023-02-22T03:57:38;8.30;99.90
57833;DHT22;43667;53.036;6.740;2023-02-22T04:00:07;8.30;99.90
57833;DHT22;43667;53.036;6.740;2023-02-22T04:02:33;8.20;99.90
57833;DHT22;43667;53.036;6.740;2023-02-22T04:04:59;8.20;99.90
57833;DHT22;43667;53.036;6.740;2023-02-22T04:07:24;8.20;99.90
57833;DHT22;43667;53.036;6.740;2023-02-22T04:09:50;8.20;99.90
57833;DHT22;43667;53.036;6.740;2023-02-22T04:12:16;8.20;99.90
57833;DHT22;43667;53.036;6.740;2023-02-22T04:14:41;8.20;99.90
57833;DHT22;43667;53.036;6.740;2023-02-22T04:17:07;8.20;99.90
57833;DHT22;43667;53.036;6.740;2023-02-22T04:19:33;8.20;99.90
57833;DHT22;43667;53.036;6.740;2023-02-22T04:21:59;8.20;99.90
57833;DHT22;43667;53.036;6.740;2023-02-22T04:24:25;8.20;99.90
57833;DHT22;43667;53.036;6.740;2023-02-22T04:26:50;8.20;99.90
57833;DHT22;43667;53.036;6.740;2023-02-22T04:29:16;8.20;99.90
57833;DHT22;43667;53.036;6.740;2023-02-22T04:31:41;8.20;99.90
57833;DHT22;43667;53.036;6.740;2023-02-22T04:34:07;8.20;99.90
57833;DHT22;43667;53.036;6.740;2023-02-22T04:36:33;8.10;99.90
57833;DHT22;43667;53.036;6.740;2023-02-22T04:38:59;8.10;99.90
57833;DHT22;43667;53.036;6.740;2023-02-22T04:41:24;8.10;99.90
57833;DHT22;43667;53.036;6.740;2023-02-22T04:43:50;8.10;99.90
57833;DHT22;43667;53.036;6.740;2023-02-22T04:46:16;8.10;99.90
57833;DHT22;43667;53.036;6.740;2023-02-22T04:48:42;8.10;99.90
57833;DHT22;43667;53.036;6.740;2023-02-22T04:51:08;8.10;99.90
57833;DHT22;43667;53.036;6.740;2023-02-22T04:53:35;8.10;99.90
57833;DHT22;43667;53.036;6.740;2023-02-22T04:56:01;8.10;99.90
57833;DHT22;43667;53.036;6.740;2023-02-22T04:58:27;8.10;99.90
57833;DHT22;43667;53.036;6.740;2023-02-22T05:00:52;8.10;99.90
57833;DHT22;43667;53.036;6.740;2023-02-22T05:03:18;8.10;99.90
57833;DHT22;43667;53.036;6.740;2023-02-22T05:05:44;8.00;99.90
57833;DHT22;43667;53.036;6.740;2023-02-22T05:08:09;8.10;99.90
57833;DHT22;43667;53.036;6.740;2023-02-22T05:10:35;8.10;99.90
57833;DHT22;43667;53.036;6.740;2023-02-22T05:13:01;8.00;99.90
57833;DHT22;43667;53.036;6.740;2023-02-22T05:15:26;8.00;99.90
57833;DHT22;43667;53.036;6.740;2023-02-22T05:17:52;8.00;99.90
57833;DHT22;43667;53.036;6.740;2023-02-22T05:20:30;8.00;99.90
57833;DHT22;43667;53.036;6.740;2023-02-22T05:22:57;8.00;99.90
57833;DHT22;43667;53.036;6.740;2023-02-22T05:25:25;8.00;99.90
57833;DHT22;43667;53.036;6.740;2023-02-22T05:27:53;8.00;99.90
57833;DHT22;43667;53.036;6.740;2023-02-22T05:30:24;8.00;99.90
57833;DHT22;43667;53.036;6.740;2023-02-22T05:32:51;8.00;99.90
57833;DHT22;43667;53.036;6.740;2023-02-22T05:35:18;8.00;99.90
57833;DHT22;43667;53.036;6.740;2023-02-22T05:37:44;8.00;99.90
57833;DHT22;43667;53.036;6.740;2023-02-22T05:40:10;7.90;99.90
57833;DHT22;43667;53.036;6.740;2023-02-22T05:42:35;7.90;99.90
57833;DHT22;43667;53.036;6.740;2023-02-22T05:45:01;8.00;99.90
57833;DHT22;43667;53.036;6.740;2023-02-22T05:47:28;7.90;99.90
57833;DHT22;43667;53.036;6.740;2023-02-22T05:49:54;7.90;99.90
57833;DHT22;43667;53.036;6.740;2023-02-22T05:52:19;7.90;99.90
57833;DHT22;43667;53.036;6.740;2023-02-22T05:54:45;7.90;99.90
57833;DHT22;43667;53.036;6.740;2023-02-22T05:57:11;7.90;99.90
57833;DHT22;43667;53.036;6.740;2023-02-22T05:59:36;7.90;99.90
57833;DHT22;43667;53.036;6.740;2023-02-22T06:02:02;7.90;99.90
57833;DHT22;43667;53.036;6.740;2023-02-22T06:04:27;7.90;99.90
57833;DHT22;43667;53.036;6.740;2023-02-22T06:06:53;7.90;99.90
57833;DHT22;43667;53.036;6.740;2023-02-22T06:09:18;7.90;99.90
57833;DHT22;43667;53.036;6.740;2023-02-22T06:11:44;7.90;99.90
57833;DHT22;43667;53.036;6.740;2023-02-22T06:14:10;7.90;99.90
57833;DHT22;43667;53.036;6.740;2023-02-22T06:16:35;7.80;99.90
57833;DHT22;43667;53.036;6.740;2023-02-22T06:19:01;7.90;99.90
57833;DHT22;43667;53.036;6.740;2023-02-22T06:21:26;7.90;99.90
57833;DHT22;43667;53.036;6.740;2023-02-22T06:23:52;7.80;99.90
57833;DHT22;43667;53.036;6.740;2023-02-22T06:26:18;7.80;99.90
57833;DHT22;43667;53.036;6.740;2023-02-22T06:28:45;7.80;99.90
57833;DHT22;43667;53.036;6.740;2023-02-22T06:31:11;7.80;99.90
57833;DHT22;43667;53.036;6.740;2023-02-22T06:33:36;7.80;99.90
57833;DHT22;43667;53.036;6.740;2023-02-22T06:36:02;7.80;99.90
57833;DHT22;43667;53.036;6.740;2023-02-22T06:38:27;7.70;99.90
57833;DHT22;43667;53.036;6.740;2023-02-22T06:40:53;7.70;99.90
57833;DHT22;43667;53.036;6.740;2023-02-22T06:43:23;7.70;99.90
57833;DHT22;43667;53.036;6.740;2023-02-22T06:45:51;7.70;99.90
57833;DHT22;43667;53.036;6.740;2023-02-22T06:48:17;7.70;99.90
57833;DHT22;43667;53.036;6.740;2023-02-22T06:50:42;7.70;99.90
57833;DHT22;43667;53.036;6.740;2023-02-22T06:53:08;7.70;99.90
57833;DHT22;43667;53.036;6.740;2023-02-22T06:55:34;7.70;99.90
57833;DHT22;43667;53.036;6.740;2023-02-22T06:58:01;7.70;99.90
57833;DHT22;43667;53.036;6.740;2023-02-22T07:00:28;7.70;99.90
57833;DHT22;43667;53.036;6.740;2023-02-22T07:02:55;7.70;99.90
57833;DHT22;43667;53.036;6.740;2023-02-22T07:05:22;7.70;99.90
57833;DHT22;43667;53.036;6.740;2023-02-22T07:07:50;7.70;99.90
57833;DHT22;43667;53.036;6.740;2023-02-22T07:10:26;7.70;99.90
57833;DHT22;43667;53.036;6.740;2023-02-22T07:12:52;7.70;99.90
57833;DHT22;43667;53.036;6.740;2023-02-22T07:15:23;7.70;99.90
57833;DHT22;43667;53.036;6.740;2023-02-22T07:17:50;7.80;99.90
57833;DHT22;43667;53.036;6.740;2023-02-22T07:20:16;7.70;99.90
57833;DHT22;43667;53.036;6.740;2023-02-22T07:22:42;7.80;99.90
57833;DHT22;43667;53.036;6.740;2023-02-22T07:25:09;7.80;99.90
57833;DHT22;43667;53.036;6.740;2023-02-22T07:27:36;7.70;99.90
57833;DHT22;43667;53.036;6.740;2023-02-22T07:30:04;7.80;99.90
57833;DHT22;43667;53.036;6.740;2023-02-22T07:32:30;7.80;99.90
57833;DHT22;43667;53.036;6.740;2023-02-22T07:34:56;7.80;99.90
57833;DHT22;43667;53.036;6.740;2023-02-22T07:37:21;7.90;99.90
57833;DHT22;43667;53.036;6.740;2023-02-22T07:39:47;7.90;99.90
57833;DHT22;43667;53.036;6.740;2023-02-22T07:42:13;7.90;99.90
57833;DHT22;43667;53.036;6.740;2023-02-22T07:44:38;7.90;99.90
57833;DHT22;43667;53.036;6.740;2023-02-22T07:47:04;8.00;99.90
57833;DHT22;43667;53.036;6.740;2023-02-22T07:49:29;8.00;99.90
57833;DHT22;43667;53.036;6.740;2023-02-22T07:51:55;8.00;99.90
57833;DHT22;43667;53.036;6.740;2023-02-22T07:54:20;8.00;99.90
57833;DHT22;43667;53.036;6.740;2023-02-22T07:56:47;8.10;99.90
57833;DHT22;43667;53.036;6.740;2023-02-22T07:59:13;8.20;99.90
57833;DHT22;43667;53.036;6.740;2023-02-22T08:01:39;8.20;99.90
57833;DHT22;43667;53.036;6.740;2023-02-22T08:04:05;8.20;99.90
57833;DHT22;43667;53.036;6.740;2023-02-22T08:06:31;8.20;99.90
57833;DHT22;43667;53.036;6.740;2023-02-22T08:08:57;8.30;99.90
57833;DHT22;43667;53.036;6.740;2023-02-22T08:11:23;8.30;99.90
57833;DHT22;43667;53.036;6.740;2023-02-22T08:13:49;8.30;99.90
57833;DHT22;43667;53.036;6.740;2023-02-22T08:16:15;8.40;99.90
57833;DHT22;43667;53.036;6.740;2023-02-22T08:18:40;8.40;99.90
57833;DHT22;43667;53.036;6.740;2023-02-22T08:21:06;8.40;99.90
57833;DHT22;43667;53.036;6.740;2023-02-22T08:23:32;8.40;99.90
57833;DHT22;43667;53.036;6.740;2023-02-22T08:26:07;8.40;99.90
57833;DHT22;43667;53.036;6.740;2023-02-22T08:28:33;8.40;99.90
57833;DHT22;43667;53.036;6.740;2023-02-22T08:30:59;8.40;99.90
57833;DHT22;43667;53.036;6.740;2023-02-22T08:33:25;8.40;99.90
57833;DHT22;43667;53.036;6.740;2023-02-22T08:35:51;8.50;99.90
57833;DHT22;43667;53.036;6.740;2023-02-22T08:38:26;8.50;99.90
57833;DHT22;43667;53.036;6.740;2023-02-22T08:40:52;8.60;99.90
57833;DHT22;43667;53.036;6.740;2023-02-22T08:43:18;8.70;99.90
57833;DHT22;43667;53.036;6.740;2023-02-22T08:45:45;8.70;99.90
57833;DHT22;43667;53.036;6.740;2023-02-22T08:48:12;8.80;99.90
57833;DHT22;43667;53.036;6.740;2023-02-22T08:50:38;8.90;99.90
57833;DHT22;43667;53.036;6.740;2023-02-22T08:53:06;8.90;99.90
57833;DHT22;43667;53.036;6.740;2023-02-22T08:55:33;8.90;99.90
57833;DHT22;43667;53.036;6.740;2023-02-22T08:58:00;8.90;99.90
57833;DHT22;43667;53.036;6.740;2023-02-22T09:00:28;8.90;99.90
57833;DHT22;43667;53.036;6.740;2023-02-22T09:02:58;8.90;99.90
57833;DHT22;43667;53.036;6.740;2023-02-22T09:05:23;8.90;99.90
57833;DHT22;43667;53.036;6.740;2023-02-22T09:07:49;8.90;99.90
57833;DHT22;43667;53.036;6.740;2023-02-22T09:10:21;8.90;99.90
57833;DHT22;43667;53.036;6.740;2023-02-22T09:12:51;9.00;99.90
57833;DHT22;43667;53.036;6.740;2023-02-22T09:15:17;8.90;99.90
57833;DHT22;43667;53.036;6.740;2023-02-22T09:17:43;8.90;99.90
57833;DHT22;43667;53.036;6.740;2023-02-22T09:20:09;8.90;99.90
57833;DHT22;43667;53.036;6.740;2023-02-22T09:22:37;9.00;99.90
57833;DHT22;43667;53.036;6.740;2023-02-22T09:25:03;9.00;99.90
57833;DHT22;43667;53.036;6.740;2023-02-22T09:27:29;9.00;99.90
57833;DHT22;43667;53.036;6.740;2023-02-22T09:29:55;8.90;99.90
57833;DHT22;43667;53.036;6.740;2023-02-22T09:32:22;9.00;99.90
57833;DHT22;43667;53.036;6.740;2023-02-22T09:34:49;9.00;99.90
57833;DHT22;43667;53.036;6.740;2023-02-22T09:37:16;9.00;99.90
57833;DHT22;43667;53.036;6.740;2023-02-22T09:39:42;9.10;99.90
57833;DHT22;43667;53.036;6.740;2023-02-22T09:42:16;9.10;99.90
57833;DHT22;43667;53.036;6.740;2023-02-22T09:45:04;9.10;99.90
57833;DHT22;43667;53.036;6.740;2023-02-22T09:47:44;9.20;99.90
57833;DHT22;43667;53.036;6.740;2023-02-22T09:50:15;9.20;99.90
57833;DHT22;43667;53.036;6.740;2023-02-22T09:52:53;9.30;99.90
57833;DHT22;43667;53.036;6.740;2023-02-22T09:57:57;9.40;99.90
57833;DHT22;43667;53.036;6.740;2023-02-22T10:00:32;9.50;99.90
57833;DHT22;43667;53.036;6.740;2023-02-22T10:03:45;9.60;99.90
57833;DHT22;43667;53.036;6.740;2023-02-22T10:06:11;9.60;99.90
57833;DHT22;43667;53.036;6.740;2023-02-22T10:08:37;9.70;99.90
57833;DHT22;43667;53.036;6.740;2023-02-22T10:11:20;9.70;99.90
57833;DHT22;43667;53.036;6.740;2023-02-22T10:17:00;9.70;99.90
57833;DHT22;43667;53.036;6.740;2023-02-22T10:19:47;9.70;99.90
57833;DHT22;43667;53.036;6.740;2023-02-22T10:25:25;9.80;99.90
57833;DHT22;43667;53.036;6.740;2023-02-22T10:30:39;9.80;99.90
57833;DHT22;43667;53.036;6.740;2023-02-22T10:33:20;9.80;99.90
57833;DHT22;43667;53.036;6.740;2023-02-22T10:35:46;9.80;99.90
57833;DHT22;43667;53.036;6.740;2023-02-22T10:43:39;9.90;99.90
57833;DHT22;43667;53.036;6.740;2023-02-22T10:46:07;9.80;99.90
57833;DHT22;43667;53.036;6.740;2023-02-22T10:48:36;9.80;99.90
57833;DHT22;43667;53.036;6.740;2023-02-22T10:51:05;9.80;99.90
57833;DHT22;43667;53.036;6.740;2023-02-22T10:53:30;9.90;99.90
57833;DHT22;43667;53.036;6.740;2023-02-22T10:56:15;9.90;99.90
57833;DHT22;43667;53.036;6.740;2023-02-22T10:58:55;9.90;99.90
57833;DHT22;43667;53.036;6.740;2023-02-22T11:04:09;9.80;99.90
57833;DHT22;43667;53.036;6.740;2023-02-22T11:06:36;9.80;99.90
57833;DHT22;43667;53.036;6.740;2023-02-22T11:09:11;9.80;99.90
57833;DHT22;43667;53.036;6.740;2023-02-22T11:11:43;9.80;99.90
57833;DHT22;43667;53.036;6.740;2023-02-22T11:14:11;9.70;99.90
57833;DHT22;43667;53.036;6.740;2023-02-22T11:16:41;9.70;99.90
57833;DHT22;43667;53.036;6.740;2023-02-22T11:19:11;9.80;99.90
57833;DHT22;43667;53.036;6.740;2023-02-22T11:21:42;9.90;99.90
57833;DHT22;43667;53.036;6.740;2023-02-22T11:24:10;9.90;99.90
57833;DHT22;43667;53.036;6.740;2023-02-22T11:26:46;9.90;99.90
57833;DHT22;43667;53.036;6.740;2023-02-22T11:29:34;10.00;99.90
57833;DHT22;43667;53.036;6.740;2023-02-22T11:32:13;10.00;99.90
57833;DHT22;43667;53.036;6.740;2023-02-22T11:34:45;10.10;99.90
57833;DHT22;43667;53.036;6.740;2023-02-22T11:40:18;10.10;99.90
57833;DHT22;43667;53.036;6.740;2023-02-22T11:42:45;10.10;99.90
57833;DHT22;43667;53.036;6.740;2023-02-22T11:45:17;10.20;99.90
57833;DHT22;43667;53.036;6.740;2023-02-22T11:47:59;10.20;99.90
57833;DHT22;43667;53.036;6.740;2023-02-22T11:50:57;10.30;99.90
57833;DHT22;43667;53.036;6.740;2023-02-22T11:56:16;10.40;99.90
57833;DHT22;43667;53.036;6.740;2023-02-22T11:58:47;10.50;99.90
57833;DHT22;43667;53.036;6.740;2023-02-22T12:01:22;10.50;99.90
57833;DHT22;43667;53.036;6.740;2023-02-22T12:04:04;10.60;99.90
57833;DHT22;43667;53.036;6.740;2023-02-22T12:06:45;10.60;99.90
57833;DHT22;43667;53.036;6.740;2023-02-22T12:14:35;10.70;99.90
57833;DHT22;43667;53.036;6.740;2023-02-22T12:17:43;10.60;99.90
57833;DHT22;43667;53.036;6.740;2023-02-22T12:20:23;10.60;99.90
57833;DHT22;43667;53.036;6.740;2023-02-22T12:23:04;10.60;99.90
57833;DHT22;43667;53.036;6.740;2023-02-22T12:25:36;10.60;99.90
57833;DHT22;43667;53.036;6.740;2023-02-22T12:28:19;10.70;99.90
57833;DHT22;43667;53.036;6.740;2023-02-22T12:34:03;10.80;99.90
57833;DHT22;43667;53.036;6.740;2023-02-22T12:36:44;10.90;99.90
57833;DHT22;43667;53.036;6.740;2023-02-22T12:39:34;10.90;99.90
57833;DHT22;43667;53.036;6.740;2023-02-22T12:42:11;11.00;99.90
57833;DHT22;43667;53.036;6.740;2023-02-22T12:44:40;11.10;99.90
57833;DHT22;43667;53.036;6.740;2023-02-22T12:47:15;11.40;99.90
57833;DHT22;43667;53.036;6.740;2023-02-22T12:52:43;11.60;99.90
57833;DHT22;43667;53.036;6.740;2023-02-22T13:03:33;11.50;99.90
57833;DHT22;43667;53.036;6.740;2023-02-22T13:07:00;11.40;99.90
57833;DHT22;43667;53.036;6.740;2023-02-22T13:09:27;11.30;99.90
57833;DHT22;43667;53.036;6.740;2023-02-22T13:15:13;11.10;99.90
57833;DHT22;43667;53.036;6.740;2023-02-22T13:20:47;11.10;99.90
57833;DHT22;43667;53.036;6.740;2023-02-22T13:23:21;11.10;99.90
57833;DHT22;43667;53.036;6.740;2023-02-22T13:26:02;11.10;99.90
57833;DHT22;43667;53.036;6.740;2023-02-22T13:31:22;11.30;99.90
57833;DHT22;43667;53.036;6.740;2023-02-22T13:34:26;11.30;99.90
57833;DHT22;43667;53.036;6.740;2023-02-22T13:37:01;11.30;99.90
57833;DHT22;43667;53.036;6.740;2023-02-22T13:40:14;11.40;99.90
57833;DHT22;43667;53.036;6.740;2023-02-22T13:42:59;11.40;99.90
57833;DHT22;43667;53.036;6.740;2023-02-22T13:48:40;11.50;99.90
57833;DHT22;43667;53.036;6.740;2023-02-22T13:51:51;11.50;99.90
57833;DHT22;43667;53.036;6.740;2023-02-22T13:56:49;11.60;99.90
57833;DHT22;43667;53.036;6.740;2023-02-22T13:59:35;11.60;99.90
57833;DHT22;43667;53.036;6.740;2023-02-22T14:02:03;11.60;99.90
57833;DHT22;43667;53.036;6.740;2023-02-22T14:06:59;11.50;99.90
57833;DHT22;43667;53.036;6.740;2023-02-22T14:15:17;11.50;99.90
57833;DHT22;43667;53.036;6.740;2023-02-22T14:17:45;11.50;99.90
57833;DHT22;43667;53.036;6.740;2023-02-22T14:22:42;11.50;99.90
57833;DHT22;43667;53.036;6.740;2023-02-22T14:25:41;11.40;99.90
57833;DHT22;43667;53.036;6.740;2023-02-22T14:28:34;11.40;99.90
57833;DHT22;43667;53.036;6.740;2023-02-22T14:31:18;11.30;99.90
57833;DHT22;43667;53.036;6.740;2023-02-22T14:33:50;11.30;99.90
57833;DHT22;43667;53.036;6.740;2023-02-22T14:36:29;11.30;99.90
57833;DHT22;43667;53.036;6.740;2023-02-22T14:39:07;11.30;99.90
57833;DHT22;43667;53.036;6.740;2023-02-22T14:41:37;11.30;99.90
57833;DHT22;43667;53.036;6.740;2023-02-22T14:44:04;11.20;99.90
57833;DHT22;43667;53.036;6.740;2023-02-22T14:46:35;11.20;99.90
57833;DHT22;43667;53.036;6.740;2023-02-22T14:49:06;11.20;99.90
57833;DHT22;43667;53.036;6.740;2023-02-22T14:51:53;11.20;99.90
57833;DHT22;43667;53.036;6.740;2023-02-22T14:54:34;11.20;99.90
57833;DHT22;43667;53.036;6.740;2023-02-22T14:57:24;11.10;99.90
57833;DHT22;43667;53.036;6.740;2023-02-22T15:02:25;11.00;99.90
57833;DHT22;43667;53.036;6.740;2023-02-22T15:04:53;10.90;99.90
57833;DHT22;43667;53.036;6.740;2023-02-22T15:07:26;10.90;99.90
57833;DHT22;43667;53.036;6.740;2023-02-22T15:10:05;10.90;99.90
57833;DHT22;43667;53.036;6.740;2023-02-22T15:12:30;10.80;99.90
57833;DHT22;43667;53.036;6.740;2023-02-22T15:15:11;10.70;99.90
57833;DHT22;43667;53.036;6.740;2023-02-22T15:17:38;10.70;99.90
57833;DHT22;43667;53.036;6.740;2023-02-22T15:20:07;10.70;99.90
57833;DHT22;43667;53.036;6.740;2023-02-22T15:22:36;10.70;99.90
57833;DHT22;43667;53.036;6.740;2023-02-22T15:25:05;10.70;99.90
57833;DHT22;43667;53.036;6.740;2023-02-22T15:27:31;10.70;99.90
57833;DHT22;43667;53.036;6.740;2023-02-22T15:30:07;10.70;99.90
57833;DHT22;43667;53.036;6.740;2023-02-22T15:32:36;10.70;99.90
57833;DHT22;43667;53.036;6.740;2023-02-22T15:35:12;10.70;99.90
57833;DHT22;43667;53.036;6.740;2023-02-22T15:37:38;10.70;99.90
57833;DHT22;43667;53.036;6.740;2023-02-22T15:40:10;10.70;99.90
57833;DHT22;43667;53.036;6.740;2023-02-22T15:42:57;10.70;99.90
57833;DHT22;43667;53.036;6.740;2023-02-22T15:45:23;10.70;99.90
57833;DHT22;43667;53.036;6.740;2023-02-22T15:47:51;10.70;99.90
57833;DHT22;43667;53.036;6.740;2023-02-22T15:52:56;10.60;99.90
57833;DHT22;43667;53.036;6.740;2023-02-22T15:55:41;10.60;99.90
57833;DHT22;43667;53.036;6.740;2023-02-22T16:00:38;10.50;99.90
57833;DHT22;43667;53.036;6.740;2023-02-22T16:03:08;10.50;99.90
57833;DHT22;43667;53.036;6.740;2023-02-22T16:05:45;10.50;99.90
57833;DHT22;43667;53.036;6.740;2023-02-22T16:08:19;10.40;99.90
57833;DHT22;43667;53.036;6.740;2023-02-22T16:10:51;10.40;99.90
57833;DHT22;43667;53.036;6.740;2023-02-22T16:13:31;10.40;99.90
57833;DHT22;43667;53.036;6.740;2023-02-22T16:16:00;10.40;99.90
57833;DHT22;43667;53.036;6.740;2023-02-22T16:18:37;10.30;99.90
57833;DHT22;43667;53.036;6.740;2023-02-22T16:21:14;10.30;99.90
57833;DHT22;43667;53.036;6.740;2023-02-22T16:23:48;10.20;99.90
57833;DHT22;43667;53.036;6.740;2023-02-22T16:26:30;10.20;99.90
57833;DHT22;43667;53.036;6.740;2023-02-22T16:29:01;10.20;99.90
57833;DHT22;43667;53.036;6.740;2023-02-22T16:31:33;10.20;99.90
57833;DHT22;43667;53.036;6.740;2023-02-22T16:34:00;10.10;99.90
57833;DHT22;43667;53.036;6.740;2023-02-22T16:36:46;10.10;99.90
57833;DHT22;43667;53.036;6.740;2023-02-22T16:39:26;10.00;99.90
57833;DHT22;43667;53.036;6.740;2023-02-22T16:41:59;10.00;99.90
57833;DHT22;43667;53.036;6.740;2023-02-22T16:44:26;10.00;99.90
57833;DHT22;43667;53.036;6.740;2023-02-22T16:46:52;10.00;99.90
57833;DHT22;43667;53.036;6.740;2023-02-22T16:49:19;9.90;99.90
57833;DHT22;43667;53.036;6.740;2023-02-22T16:51:55;9.90;99.90
57833;DHT22;43667;53.036;6.740;2023-02-22T16:54:43;9.90;99.90
57833;DHT22;43667;53.036;6.740;2023-02-22T16:57:17;9.80;99.90
57833;DHT22;43667;53.036;6.740;2023-02-22T16:59:43;9.80;99.90
57833;DHT22;43667;53.036;6.740;2023-02-22T17:02:13;9.80;99.90
57833;DHT22;43667;53.036;6.740;2023-02-22T17:04:39;9.80;99.90
57833;DHT22;43667;53.036;6.740;2023-02-22T17:07:06;9.80;99.90
57833;DHT22;43667;53.036;6.740;2023-02-22T17:09:33;9.70;99.90
57833;DHT22;43667;53.036;6.740;2023-02-22T17:12:00;9.70;99.90
57833;DHT22;43667;53.036;6.740;2023-02-22T17:14:30;9.70;99.90
57833;DHT22;43667;53.036;6.740;2023-02-22T17:16:57;9.60;99.90
57833;DHT22;43667;53.036;6.740;2023-02-22T17:19:24;9.60;99.90
57833;DHT22;43667;53.036;6.740;2023-02-22T17:21:50;9.60;99.90
57833;DHT22;43667;53.036;6.740;2023-02-22T17:24:17;9.50;99.90
57833;DHT22;43667;53.036;6.740;2023-02-22T17:26:44;9.50;99.90
57833;DHT22;43667;53.036;6.740;2023-02-22T17:29:10;9.50;99.90
57833;DHT22;43667;53.036;6.740;2023-02-22T17:31:38;9.50;99.90
57833;DHT22;43667;53.036;6.740;2023-02-22T17:34:04;9.40;99.90
57833;DHT22;43667;53.036;6.740;2023-02-22T17:36:31;9.40;99.90
57833;DHT22;43667;53.036;6.740;2023-02-22T17:38:57;9.50;99.90
57833;DHT22;43667;53.036;6.740;2023-02-22T17:41:24;9.40;99.90
57833;DHT22;43667;53.036;6.740;2023-02-22T17:43:50;9.40;99.90
57833;DHT22;43667;53.036;6.740;2023-02-22T17:46:16;9.40;99.90
57833;DHT22;43667;53.036;6.740;2023-02-22T17:48:44;9.30;99.90
57833;DHT22;43667;53.036;6.740;2023-02-22T17:51:10;9.30;99.90
57833;DHT22;43667;53.036;6.740;2023-02-22T17:53:37;9.30;99.90